Time;durP1;ratioP1;P1;durP2;ratioP2;P2;SDS_P1;SDS_P2;PMS_P1;PMS_P2;Temp;Humidity;BMP_temperature;BMP_pressure;BME280_temperature;BME280_humidity;BME280_pressure;Samples;Min_cycle;Max_cycle;Signal;HPM_P1;HPM_P2
2023/09/17 00:00:19;;;;;;;13.60;9.20;;;;;;;17.31;63.43;100824.04;110817;1206;138802;-64
2023/09/17 00:02:44;;;;;;;18.10;9.70;;;;;;;17.29;63.40;100825.42;110991;1206;97770;-65
2023/09/17 00:05:09;;;;;;;16.90;9.30;;;;;;;17.26;63.64;100825.29;110841;1206;138587;-65
2023/09/17 00:07:35;;;;;;;16.70;10.00;;;;;;;17.24;63.66;100822.73;110997;1206;97665;-65
2023/09/17 00:10:00;;;;;;;18.90;9.70;;;;;;;17.21;63.66;100823.98;110918;1209;140509;-65
2023/09/17 00:12:25;;;;;;;17.10;8.40;;;;;;;17.18;63.75;100825.23;110921;1206;98013;-64
2023/09/17 00:14:51;;;;;;;15.90;9.60;;;;;;;17.17;64.05;100827.32;111139;1209;98088;-64
2023/09/17 00:17:16;;;;;;;19.80;9.80;;;;;;;17.16;64.17;100823.98;110819;1206;140329;-64
2023/09/17 00:19:41;;;;;;;18.10;10.50;;;;;;;17.14;64.23;100819.75;111040;1212;97645;-64
2023/09/17 00:22:09;;;;;;;17.10;9.90;;;;;;;17.12;64.22;100821.70;110844;1210;139095;-65
2023/09/17 00:24:36;;;;;;;15.70;8.60;;;;;;;17.10;64.42;100821.64;110957;1209;97766;-65
2023/09/17 00:27:02;;;;;;;20.90;10.60;;;;;;;17.10;64.44;100826.02;111033;1210;97577;-65
2023/09/17 00:29:27;;;;;;;18.50;10.20;;;;;;;17.07;64.42;100821.35;110843;1206;139460;-65
2023/09/17 00:31:53;;;;;;;14.80;9.80;;;;;;;17.05;64.61;100821.49;111039;1208;97733;-64
2023/09/17 00:34:18;;;;;;;18.20;9.50;;;;;;;17.03;64.72;100818.70;110891;1205;139004;-64
2023/09/17 00:36:43;;;;;;;17.00;10.00;;;;;;;17.03;64.85;100817.11;111000;1211;97686;-64
2023/09/17 00:39:09;;;;;;;16.60;11.30;;;;;;;17.02;64.73;100812.86;110951;1219;97639;-65
2023/09/17 00:41:35;;;;;;;15.60;9.80;;;;;;;16.96;64.79;100812.52;110841;1209;139549;-65
2023/09/17 00:44:01;;;;;;;21.50;11.50;;;;;;;16.90;65.06;100811.82;111170;1210;97619;-64
2023/09/17 00:46:26;;;;;;;17.70;10.30;;;;;;;16.87;65.13;100810.80;110869;1209;139146;-64
2023/09/17 00:48:52;;;;;;;20.40;10.60;;;;;;;16.83;65.28;100810.49;110939;1211;97730;-64
2023/09/17 00:51:18;;;;;;;22.30;11.40;;;;;;;16.79;65.40;100807.49;111073;1209;97728;-64
2023/09/17 00:53:43;;;;;;;29.30;10.90;;;;;;;16.75;65.50;100806.17;110797;1221;139745;-65
2023/09/17 00:56:08;;;;;;;23.40;11.90;;;;;;;16.72;65.53;100807.84;110904;1211;97646;-65
2023/09/17 00:58:34;;;;;;;18.90;11.50;;;;;;;16.69;65.73;100807.81;110929;1206;140435;-65
2023/09/17 01:01:00;;;;;;;18.30;10.90;;;;;;;16.66;65.69;100802.10;111006;1212;97664;-65
2023/09/17 01:03:27;;;;;;;17.20;11.00;;;;;;;16.62;65.82;100804.16;110939;1206;97767;-66
2023/09/17 01:05:54;;;;;;;16.50;10.80;;;;;;;16.58;65.95;100804.01;110980;1206;139205;-65
2023/09/17 01:08:20;;;;;;;21.40;11.50;;;;;;;16.54;65.96;100803.74;111085;1209;112433;-65
2023/09/17 01:10:48;;;;;;;19.30;11.60;;;;;;;16.50;66.09;100801.28;110823;1205;139385;-65
2023/09/17 01:13:14;;;;;;;18.00;11.20;;;;;;;16.47;66.33;100796.40;110920;1211;99506;-65
2023/09/17 01:15:39;;;;;;;20.90;12.00;;;;;;;16.45;66.33;100793.33;110934;1210;97577;-64
2023/09/17 01:18:07;;;;;;;19.90;11.10;;;;;;;16.41;66.36;100794.14;110995;1211;138852;-67
2023/09/17 01:20:41;;;;;;;23.20;11.50;;;;;;;16.37;66.52;100790.23;110987;1211;101866;-64
2023/09/17 01:23:20;;;;;;;23.50;11.70;;;;;;;16.32;66.49;100788.93;110961;1206;139649;-65
2023/09/17 01:26:01;;;;;;;17.10;10.80;;;;;;;16.29;66.79;100783.02;110924;1211;97604;-65
2023/09/17 01:28:28;;;;;;;25.90;13.00;;;;;;;16.27;66.92;100782.81;110880;1208;141424;-65
2023/09/17 01:30:54;;;;;;;21.70;12.30;;;;;;;16.24;67.05;100786.20;110962;1206;97575;-65
2023/09/17 01:33:19;;;;;;;23.40;12.30;;;;;;;16.22;67.04;100785.98;110978;1210;97672;-65
2023/09/17 01:36:16;;;;;;;21.70;12.20;;;;;;;16.20;67.28;100787.92;110866;1211;138843;-65
2023/09/17 01:38:48;;;;;;;23.20;12.10;;;;;;;16.17;67.32;100787.93;110915;1210;97981;-65
2023/09/17 01:41:15;;;;;;;26.60;12.40;;;;;;;16.14;67.47;100785.39;110853;1211;138929;-65
2023/09/17 01:43:44;;;;;;;17.70;11.70;;;;;;;16.13;67.54;100786.05;110883;1209;99806;-65
2023/09/17 01:46:09;;;;;;;21.60;11.90;;;;;;;16.09;67.66;100786.45;110847;1221;138862;-65
2023/09/17 01:48:37;;;;;;;20.40;11.40;;;;;;;16.06;67.70;100783.59;110947;1211;97634;-65
2023/09/17 01:51:03;;;;;;;21.70;11.70;;;;;;;16.03;67.81;100780.52;110930;1206;97656;-64
2023/09/17 01:53:31;;;;;;;18.50;11.40;;;;;;;16.01;67.89;100782.31;110959;1205;139363;-64
2023/09/17 01:55:56;;;;;;;24.70;12.00;;;;;;;15.98;68.07;100776.71;110862;1206;108090;-65
2023/09/17 01:58:22;;;;;;;21.80;11.80;;;;;;;15.98;68.35;100779.80;110892;1206;140187;-64
2023/09/17 02:00:49;;;;;;;19.30;11.70;;;;;;;15.98;68.26;100778.73;111025;1212;97617;-65
2023/09/17 02:03:15;;;;;;;19.30;12.00;;;;;;;15.96;68.44;100774.70;111040;1211;98560;-65
2023/09/17 02:05:40;;;;;;;23.60;12.10;;;;;;;15.94;68.60;100770.49;110821;1212;139266;-65
2023/09/17 02:08:05;;;;;;;19.50;12.10;;;;;;;15.91;68.67;100767.97;110954;1211;97674;-65
2023/09/17 02:10:30;;;;;;;19.50;12.00;;;;;;;15.90;68.71;100766.80;110826;1211;138802;-65
2023/09/17 02:12:56;;;;;;;18.10;11.70;;;;;;;15.88;68.94;100767.61;110993;1211;99110;-65
2023/09/17 02:15:21;;;;;;;23.50;12.00;;;;;;;15.87;69.02;100769.11;111073;1211;97712;-65
2023/09/17 02:17:50;;;;;;;19.00;11.40;;;;;;;15.87;69.15;100773.11;110817;1208;140935;-64
2023/09/17 02:20:15;;;;;;;19.20;11.90;;;;;;;15.84;69.19;100769.66;111046;1210;99227;-64
2023/09/17 02:22:41;;;;;;;21.40;12.50;;;;;;;15.83;69.29;100767.23;110858;1211;138937;-65
2023/09/17 02:25:07;;;;;;;20.90;12.30;;;;;;;15.81;69.53;100764.28;110970;1206;97556;-66
2023/09/17 02:27:33;;;;;;;18.70;12.10;;;;;;;15.81;69.61;100765.53;110901;1211;97676;-65
2023/09/17 02:29:59;;;;;;;18.90;11.30;;;;;;;15.81;69.69;100760.33;111082;1210;139038;-64
2023/09/17 02:32:24;;;;;;;18.10;11.70;;;;;;;15.80;69.79;100759.33;110892;1211;99041;-65
2023/09/17 02:34:50;;;;;;;19.30;11.40;;;;;;;15.79;69.90;100755.23;110924;1209;140873;-65
2023/09/17 02:37:15;;;;;;;21.60;11.60;;;;;;;15.78;69.99;100753.31;110969;1211;97674;-65
2023/09/17 02:39:41;;;;;;;23.70;13.00;;;;;;;15.76;69.93;100755.77;111070;1210;97681;-65
2023/09/17 02:42:07;;;;;;;25.30;13.00;;;;;;;15.74;70.03;100753.01;110850;1209;138794;-65
2023/09/17 02:44:32;;;;;;;24.00;12.10;;;;;;;15.72;70.19;100750.98;110970;1211;97639;-65
2023/09/17 02:46:58;;;;;;;19.10;12.50;;;;;;;15.70;70.21;100749.84;110853;1206;139110;-64
2023/09/17 02:49:23;;;;;;;20.80;11.70;;;;;;;15.67;70.30;100752.00;110966;1211;97666;-65
2023/09/17 02:51:50;;;;;;;18.30;12.70;;;;;;;15.66;70.52;100754.24;111007;1210;97611;-65
2023/09/17 02:54:15;;;;;;;24.20;13.30;;;;;;;15.65;70.59;100753.62;110926;1212;139401;-64
2023/09/17 02:56:42;;;;;;;19.20;13.10;;;;;;;15.62;70.49;100753.39;111025;1206;98052;-65
2023/09/17 02:59:07;;;;;;;18.70;12.20;;;;;;;15.61;70.66;100760.20;110913;1212;139781;-64
2023/09/17 03:01:33;;;;;;;24.00;12.80;;;;;;;15.57;70.73;100758.05;111059;1206;97698;-65
2023/09/17 03:03:58;;;;;;;19.60;12.50;;;;;;;15.54;71.03;100756.25;110892;1206;139942;-67
2023/09/17 03:06:23;;;;;;;22.40;13.00;;;;;;;15.54;71.11;100759.85;111049;1211;97662;-64
2023/09/17 03:08:49;;;;;;;18.00;12.80;;;;;;;15.53;71.19;100759.00;110969;1206;97603;-65
2023/09/17 03:11:17;;;;;;;20.40;13.30;;;;;;;15.53;71.39;100768.38;110961;1212;140704;-65
2023/09/17 03:13:45;;;;;;;19.30;12.40;;;;;;;15.53;71.47;100765.35;110955;1206;111605;-65
2023/09/17 03:16:12;;;;;;;19.90;12.60;;;;;;;15.51;71.51;100766.70;111011;1211;140874;-66
2023/09/17 03:18:39;;;;;;;18.10;12.20;;;;;;;15.50;71.63;100766.08;110850;1206;107948;-66
2023/09/17 03:21:06;;;;;;;18.60;13.20;;;;;;;15.48;71.70;100768.66;111020;1211;98045;-66
2023/09/17 03:23:32;;;;;;;23.70;13.30;;;;;;;15.48;71.87;100773.91;110881;1211;139907;-66
2023/09/17 03:25:57;;;;;;;20.40;13.00;;;;;;;15.47;71.89;100769.31;111054;1209;97641;-66
2023/09/17 03:28:22;;;;;;;20.60;13.30;;;;;;;15.45;72.03;100773.55;110905;1211;139176;-66
2023/09/17 03:30:47;;;;;;;23.00;13.40;;;;;;;15.45;72.10;100769.45;110889;1207;97652;-66
2023/09/17 03:33:13;;;;;;;17.90;12.70;;;;;;;15.44;72.25;100766.59;111093;1212;98591;-66
2023/09/17 03:35:39;;;;;;;21.70;12.70;;;;;;;15.43;72.35;100770.28;110825;1206;140123;-66
2023/09/17 03:38:04;;;;;;;24.00;13.90;;;;;;;15.43;72.45;100770.97;110975;1212;97681;-66
2023/09/17 03:40:31;;;;;;;20.00;12.40;;;;;;;15.43;72.50;100770.62;110869;1211;139518;-66
2023/09/17 03:42:57;;;;;;;28.90;13.00;;;;;;;15.42;72.50;100773.77;111082;1206;97546;-66
2023/09/17 03:45:22;;;;;;;19.20;12.50;;;;;;;15.39;72.61;100774.30;111042;1208;97698;-66
2023/09/17 03:47:48;;;;;;;23.20;13.30;;;;;;;15.38;72.77;100773.64;110880;1206;138996;-66
2023/09/17 03:50:16;;;;;;;21.80;14.10;;;;;;;15.38;72.79;100771.14;111052;1219;97719;-66
2023/09/17 03:52:43;;;;;;;23.70;13.70;;;;;;;15.37;72.95;100769.91;110869;1211;139028;-66
2023/09/17 03:55:09;;;;;;;20.90;14.60;;;;;;;15.37;72.98;100769.58;110964;1219;98304;-66
2023/09/17 03:57:36;;;;;;;23.40;14.10;;;;;;;15.37;73.12;100764.52;111011;1210;97713;-66
2023/09/17 04:00:06;;;;;;;25.00;13.00;;;;;;;15.36;73.00;100768.58;110820;1206;139699;-66
2023/09/17 04:02:35;;;;;;;24.50;14.80;;;;;;;15.32;73.26;100765.73;110967;1210;97607;-66
2023/09/17 04:05:01;;;;;;;20.90;13.70;;;;;;;15.30;73.29;100767.29;110839;1216;138946;-66
2023/09/17 04:07:26;;;;;;;25.20;13.90;;;;;;;15.28;73.29;100766.52;111019;1206;98071;-66
2023/09/17 04:09:52;;;;;;;25.00;14.80;;;;;;;15.24;73.33;100763.13;111019;1211;97684;-66
2023/09/17 04:12:17;;;;;;;25.20;14.40;;;;;;;15.23;73.48;100762.13;110864;1206;139227;-66
2023/09/17 04:14:42;;;;;;;21.60;14.20;;;;;;;15.21;73.61;100765.11;111032;1211;97686;-66
2023/09/17 04:17:07;;;;;;;26.20;16.10;;;;;;;15.20;73.64;100767.16;110891;1219;140114;-63
2023/09/17 04:19:33;;;;;;;26.50;15.00;;;;;;;15.19;73.83;100771.04;110964;1209;97666;-66
2023/09/17 04:21:59;;;;;;;23.10;14.00;;;;;;;15.18;73.96;100773.25;110889;1206;138948;-65
2023/09/17 04:24:25;;;;;;;22.90;14.80;;;;;;;15.18;73.91;100777.40;110928;1215;98473;-66
2023/09/17 04:26:52;;;;;;;24.70;15.40;;;;;;;15.16;74.04;100780.36;110964;1206;98184;-66
2023/09/17 04:29:19;;;;;;;23.40;14.70;;;;;;;15.16;74.21;100777.16;110840;1210;139614;-66
2023/09/17 04:31:46;;;;;;;25.60;15.00;;;;;;;15.16;74.32;100775.87;111072;1212;97758;-66
2023/09/17 04:34:11;;;;;;;26.80;15.40;;;;;;;15.17;74.48;100778.36;110805;1212;140505;-66
2023/09/17 04:36:37;;;;;;;23.20;14.90;;;;;;;15.16;74.52;100778.36;110851;1212;97638;-66
2023/09/17 04:39:03;;;;;;;23.80;14.70;;;;;;;15.17;74.47;100778.16;111055;1206;97763;-66
2023/09/17 04:41:28;;;;;;;22.60;14.40;;;;;;;15.16;74.68;100780.20;110836;1209;139274;-66
2023/09/17 04:43:53;;;;;;;22.60;16.10;;;;;;;15.16;74.76;100776.25;111096;1209;97566;-66
2023/09/17 04:46:19;;;;;;;24.20;16.00;;;;;;;15.16;74.77;100776.63;110994;1219;139070;-65
2023/09/17 04:48:44;;;;;;;30.10;16.70;;;;;;;15.16;74.87;100776.62;110915;1212;97587;-66
2023/09/17 04:51:12;;;;;;;25.00;15.70;;;;;;;15.16;75.09;100774.96;111048;1212;97565;-66
2023/09/17 04:53:38;;;;;;;21.30;15.00;;;;;;;15.17;75.19;100778.48;110987;1206;138769;-66
2023/09/17 04:56:03;;;;;;;25.60;14.80;;;;;;;15.19;75.29;100777.15;110978;1211;97648;-65
2023/09/17 04:58:28;;;;;;;25.50;15.70;;;;;;;15.20;75.32;100776.90;110901;1206;139643;-66
2023/09/17 05:00:54;;;;;;;25.00;14.60;;;;;;;15.21;75.38;100783.52;110868;1212;97673;-66
2023/09/17 05:03:19;;;;;;;24.70;15.80;;;;;;;15.21;75.50;100786.55;110930;1210;97689;-65
2023/09/17 05:05:46;;;;;;;24.20;15.50;;;;;;;15.22;75.61;100785.39;110901;1206;139062;-65
2023/09/17 05:08:13;;;;;;;25.00;14.80;;;;;;;15.24;75.63;100789.07;110975;1212;97568;-66
2023/09/17 05:10:39;;;;;;;25.60;15.00;;;;;;;15.25;75.82;100791.13;110705;1211;140488;-66
2023/09/17 05:13:05;;;;;;;26.80;15.60;;;;;;;15.27;75.75;100796.65;110828;1206;97580;-65
2023/09/17 05:15:31;;;;;;;29.20;15.90;;;;;;;15.28;75.96;100796.22;111011;1212;99274;-66
2023/09/17 05:17:56;;;;;;;25.50;15.40;;;;;;;15.30;76.12;100798.97;110666;1206;138728;-66
2023/09/17 05:20:23;;;;;;;23.70;15.80;;;;;;;15.32;76.14;100796.68;110951;1209;97693;-66
2023/09/17 05:22:51;;;;;;;24.20;16.10;;;;;;;15.36;76.37;100804.02;110801;1206;138911;-65
2023/09/17 05:25:16;;;;;;;23.30;15.70;;;;;;;15.39;76.33;100809.95;113213;1206;95600;-64
2023/09/17 05:27:43;;;;;;;26.90;16.00;;;;;;;15.42;76.45;100808.13;113280;1206;95964;-64
2023/09/17 05:30:10;;;;;;;30.40;16.10;;;;;;;15.47;76.61;100809.31;113187;1206;140497;-64
2023/09/17 05:32:36;;;;;;;33.20;17.20;;;;;;;15.51;76.69;100809.19;113292;1206;96594;-64
2023/09/17 05:35:03;;;;;;;26.90;16.30;;;;;;;15.57;76.72;100809.59;111252;1212;139212;-65
2023/09/17 05:37:28;;;;;;;25.00;15.90;;;;;;;15.62;76.84;100809.11;110812;1216;99436;-66
2023/09/17 05:39:53;;;;;;;22.40;15.00;;;;;;;15.68;76.87;100810.52;110913;1218;97779;-66
2023/09/17 05:42:19;;;;;;;24.40;14.80;;;;;;;15.73;77.05;100812.92;110878;1212;140092;-66
2023/09/17 05:44:44;;;;;;;26.70;15.10;;;;;;;15.77;76.92;100811.92;110841;1224;97734;-66
2023/09/17 05:47:09;;;;;;;23.00;15.40;;;;;;;15.81;77.03;100808.63;110873;1211;140294;-66
2023/09/17 05:49:35;;;;;;;24.60;15.50;;;;;;;15.85;77.01;100810.13;110900;1212;97590;-66
2023/09/17 05:52:00;;;;;;;24.50;15.60;;;;;;;15.89;77.01;100811.14;110939;1210;139048;-66
2023/09/17 05:54:25;;;;;;;28.30;16.80;;;;;;;15.93;77.05;100812.56;110880;1212;111578;-66
2023/09/17 05:56:51;;;;;;;23.30;14.90;;;;;;;15.97;77.17;100814.11;110937;1206;97735;-65
2023/09/17 05:59:17;;;;;;;28.90;15.60;;;;;;;16.02;77.17;100817.77;110871;1212;140183;-66
2023/09/17 06:01:42;;;;;;;21.70;15.30;;;;;;;16.07;77.25;100816.37;110906;1206;97612;-66
2023/09/17 06:04:08;;;;;;;23.30;14.70;;;;;;;16.12;77.21;100820.92;110772;1206;140212;-66
2023/09/17 06:06:33;;;;;;;25.10;15.00;;;;;;;16.16;77.33;100822.06;110872;1209;100381;-66
2023/09/17 06:08:58;;;;;;;23.60;15.30;;;;;;;16.21;77.34;100817.96;110852;1206;97664;-66
2023/09/17 06:11:24;;;;;;;22.70;16.30;;;;;;;16.25;77.40;100823.10;110848;1218;140567;-66
2023/09/17 06:13:50;;;;;;;22.00;14.30;;;;;;;16.31;77.39;100818.95;110848;1212;97734;-66
2023/09/17 06:16:16;;;;;;;25.10;14.90;;;;;;;16.36;77.47;100823.30;110626;1212;139767;-64
2023/09/17 06:18:41;;;;;;;24.70;16.20;;;;;;;16.41;77.54;100820.30;110948;1212;97696;-64
2023/09/17 06:21:06;;;;;;;23.20;14.60;;;;;;;16.45;77.47;100824.85;110918;1206;97607;-66
2023/09/17 06:23:31;;;;;;;29.80;15.30;;;;;;;16.51;77.56;100828.09;110757;1206;138971;-66
2023/09/17 06:25:56;;;;;;;22.50;14.90;;;;;;;16.56;77.57;100824.70;110902;1206;97597;-66
2023/09/17 06:28:22;;;;;;;21.60;13.90;;;;;;;16.62;77.58;100831.90;110790;1211;139759;-66
2023/09/17 06:30:48;;;;;;;25.50;14.50;;;;;;;16.68;77.65;100832.45;111037;1206;99148;-66
2023/09/17 06:33:14;;;;;;;27.80;15.10;;;;;;;16.72;77.54;100832.14;110848;1210;97642;-66
2023/09/17 06:35:39;;;;;;;18.30;13.40;;;;;;;16.78;77.64;100830.12;110681;1211;139466;-66
2023/09/17 06:38:04;;;;;;;22.90;14.50;;;;;;;16.85;77.55;100835.46;110981;1206;97555;-65
2023/09/17 06:40:30;;;;;;;20.20;14.20;;;;;;;16.92;77.58;100832.64;110783;1215;139276;-65
2023/09/17 06:42:55;;;;;;;23.70;14.90;;;;;;;16.99;77.45;100833.59;110992;1206;97648;-65
2023/09/17 06:45:20;;;;;;;20.50;13.90;;;;;;;17.05;77.54;100834.99;110916;1206;98033;-66
2023/09/17 06:47:47;;;;;;;20.50;14.10;;;;;;;17.11;77.43;100837.30;110756;1209;139716;-66
2023/09/17 06:50:13;;;;;;;21.40;14.00;;;;;;;17.16;77.61;100835.67;111010;1206;97737;-65
2023/09/17 06:52:39;;;;;;;23.70;14.20;;;;;;;17.21;77.47;100832.30;111061;1212;139683;-65
2023/09/17 06:55:04;;;;;;;22.00;13.90;;;;;;;17.28;77.28;100834.39;111009;1207;97693;-65
2023/09/17 06:57:30;;;;;;;24.30;14.40;;;;;;;17.34;77.31;100834.46;111014;1212;97662;-66
2023/09/17 06:59:55;;;;;;;24.10;14.30;;;;;;;17.41;77.42;100839.27;110917;1211;139438;-65
2023/09/17 07:02:21;;;;;;;21.70;13.90;;;;;;;17.47;77.31;100839.00;110998;1206;97665;-65
2023/09/17 07:04:47;;;;;;;23.60;14.20;;;;;;;17.51;77.34;100836.70;110959;1207;138999;-65
2023/09/17 07:07:13;;;;;;;23.40;13.90;;;;;;;17.57;77.30;100838.65;110989;1206;97555;-65
2023/09/17 07:09:38;;;;;;;20.60;13.50;;;;;;;17.64;77.38;100837.28;110829;1212;97680;-65
2023/09/17 07:12:04;;;;;;;20.10;14.20;;;;;;;17.71;77.39;100834.63;110991;1206;139353;-65
2023/09/17 07:14:29;;;;;;;23.90;13.80;;;;;;;17.77;77.29;100837.30;110917;1212;98527;-65
2023/09/17 07:16:54;;;;;;;27.00;13.70;;;;;;;17.84;77.25;100839.36;110962;1209;140305;-65
2023/09/17 07:19:20;;;;;;;19.20;13.60;;;;;;;17.91;77.28;100839.95;111021;1206;97574;-65
2023/09/17 07:21:45;;;;;;;21.90;13.90;;;;;;;17.99;77.11;100835.02;110819;1212;97603;-65
2023/09/17 07:24:10;;;;;;;26.80;14.20;;;;;;;18.05;77.11;100835.69;110959;1209;139416;-65
2023/09/17 07:26:35;;;;;;;27.30;13.40;;;;;;;18.11;77.06;100840.83;110882;1206;97559;-65
2023/09/17 07:29:03;;;;;;;18.90;12.90;;;;;;;18.19;76.98;100843.02;110880;1209;139377;-65
2023/09/17 07:31:28;;;;;;;22.00;13.20;;;;;;;18.26;76.82;100840.63;110896;1206;103319;-66
2023/09/17 07:33:54;;;;;;;27.40;13.00;;;;;;;18.34;76.89;100844.21;110810;1209;98438;-66
2023/09/17 07:36:19;;;;;;;16.00;11.90;;;;;;;18.41;76.69;100842.61;110669;1206;138777;-65
2023/09/17 07:38:45;;;;;;;16.90;11.50;;;;;;;18.47;76.61;100842.85;110672;1209;101678;-65
2023/09/17 07:41:11;;;;;;;19.60;11.90;;;;;;;18.55;76.59;100842.12;110681;1212;140244;-65
2023/09/17 07:43:36;;;;;;;16.90;11.40;;;;;;;18.65;76.52;100845.27;110989;1218;97572;-66
2023/09/17 07:46:01;;;;;;;16.10;10.70;;;;;;;18.73;76.53;100841.16;110827;1212;139145;-65
2023/09/17 07:48:30;;;;;;;14.60;10.50;;;;;;;18.82;76.42;100833.46;110969;1210;97631;-65
2023/09/17 07:50:59;;;;;;;16.60;10.00;;;;;;;18.89;76.25;100835.29;111077;1212;97543;-65
2023/09/17 07:53:25;;;;;;;16.00;10.10;;;;;;;18.98;76.20;100834.80;110898;1206;140387;-66
2023/09/17 07:55:52;;;;;;;14.80;9.50;;;;;;;19.06;76.21;100832.34;110978;1212;97683;-65
2023/09/17 07:58:18;;;;;;;12.10;9.40;;;;;;;19.17;76.17;100829.73;110912;1209;138927;-67
2023/09/17 08:00:46;;;;;;;14.50;9.20;;;;;;;19.27;76.00;100833.64;110951;1206;97591;-69
2023/09/17 08:03:18;;;;;;;15.90;8.70;;;;;;;19.36;75.84;100832.02;110886;1209;99318;-70
2023/09/17 08:05:45;;;;;;;13.00;8.80;;;;;;;19.46;75.67;100829.83;110968;1210;138814;-69
2023/09/17 08:08:11;;;;;;;13.90;7.50;;;;;;;19.58;75.60;100828.60;111112;1206;97624;-69
2023/09/17 08:10:38;;;;;;;14.80;7.70;;;;;;;19.68;75.47;100829.60;110832;1208;139391;-66
2023/09/17 08:13:04;;;;;;;10.90;7.80;;;;;;;19.76;75.29;100830.90;111135;1212;97649;-67
2023/09/17 08:15:29;;;;;;;10.30;7.40;;;;;;;19.87;75.11;100830.13;111183;1211;97603;-69
2023/09/17 08:17:56;;;;;;;13.20;8.20;;;;;;;19.96;75.03;100821.71;110980;1212;139940;-67
2023/09/17 08:20:22;;;;;;;11.30;7.10;;;;;;;20.06;74.80;100820.90;111105;1209;97590;-69
2023/09/17 08:22:50;;;;;;;8.90;7.20;;;;;;;20.17;74.71;100823.83;111002;1206;138814;-70
2023/09/17 08:25:16;;;;;;;13.20;6.90;;;;;;;20.28;74.48;100824.04;111146;1206;97642;-67
2023/09/17 08:27:41;;;;;;;12.60;7.50;;;;;;;20.39;74.34;100823.54;111013;1209;97692;-67
2023/09/17 08:30:11;;;;;;;8.30;6.00;;;;;;;20.49;74.11;100816.42;110982;1209;138626;-67
2023/09/17 08:32:41;;;;;;;8.10;6.10;;;;;;;20.59;73.86;100820.46;111034;1206;99628;-67
2023/09/17 08:35:07;;;;;;;8.90;6.80;;;;;;;20.70;73.72;100824.08;110947;1210;138555;-67
2023/09/17 08:37:34;;;;;;;11.40;5.90;;;;;;;20.80;73.49;100821.76;111067;1210;97564;-67
2023/09/17 08:40:00;;;;;;;8.50;6.40;;;;;;;20.90;73.34;100819.98;110925;1209;140441;-66
2023/09/17 08:42:27;;;;;;;9.10;6.10;;;;;;;21.00;73.16;100822.95;111104;1206;97570;-67
2023/09/17 08:44:56;;;;;;;10.40;5.70;;;;;;;21.10;73.06;100823.41;111079;1209;101514;-68
2023/09/17 08:47:21;;;;;;;8.40;6.20;;;;;;;21.19;72.77;100819.97;111037;1206;139481;-68
2023/09/17 08:49:46;;;;;;;7.80;5.20;;;;;;;21.27;72.66;100820.18;110991;1212;97662;-68
2023/09/17 08:52:16;;;;;;;7.00;5.30;;;;;;;21.35;72.42;100818.58;111043;1206;139059;-67
2023/09/17 08:54:42;;;;;;;9.50;5.10;;;;;;;21.43;72.11;100813.69;111038;1206;97565;-68
2023/09/17 08:57:10;;;;;;;9.70;4.90;;;;;;;21.54;71.91;100817.98;111147;1206;97692;-68
2023/09/17 08:59:43;;;;;;;8.90;4.90;;;;;;;21.65;71.76;100823.05;110910;1209;138624;-68
2023/09/17 09:02:24;;;;;;;8.60;5.10;;;;;;;21.71;71.29;100822.50;111100;1206;97452;-68
2023/09/17 09:04:51;;;;;;;6.20;4.70;;;;;;;21.78;71.09;100822.33;110908;1209;137854;-68
2023/09/17 09:07:21;;;;;;;6.10;5.10;;;;;;;21.86;70.70;100823.19;111184;1209;97693;-68
2023/09/17 09:09:49;;;;;;;9.60;4.60;;;;;;;21.95;70.26;100815.29;111047;1206;97786;-68
2023/09/17 09:12:16;;;;;;;6.20;4.30;;;;;;;22.03;70.09;100815.88;111046;1209;138654;-68
2023/09/17 09:14:44;;;;;;;5.70;4.20;;;;;;;22.10;70.05;100818.73;111039;1206;97626;-68
2023/09/17 09:17:10;;;;;;;8.90;4.40;;;;;;;22.18;69.95;100824.17;110980;1209;140258;-68
2023/09/17 09:19:37;;;;;;;9.00;4.30;;;;;;;22.26;69.63;100822.89;111016;1206;98365;-68
2023/09/17 09:22:05;;;;;;;11.40;4.40;;;;;;;22.33;69.36;100821.91;111146;1209;138926;-67
2023/09/17 09:24:49;;;;;;;5.70;4.40;;;;;;;22.40;69.12;100818.29;111055;1212;98269;-68
2023/09/17 09:27:14;;;;;;;8.10;4.80;;;;;;;22.48;69.04;100818.42;111063;1209;97668;-68
2023/09/17 09:29:42;;;;;;;5.70;3.40;;;;;;;22.57;68.61;100818.89;110815;1207;138092;-68
2023/09/17 09:32:12;;;;;;;6.20;4.00;;;;;;;22.63;68.50;100812.66;110841;1209;97703;-68
2023/09/17 09:34:38;;;;;;;4.50;4.00;;;;;;;22.69;68.38;100812.13;110816;1206;138259;-68
2023/09/17 09:37:08;;;;;;;7.00;4.20;;;;;;;22.75;67.98;100811.75;111064;1206;97758;-68
2023/09/17 09:39:37;;;;;;;7.30;4.50;;;;;;;22.81;67.68;100814.90;111043;1209;100021;-68
2023/09/17 09:42:07;;;;;;;5.50;3.90;;;;;;;22.86;67.56;100815.69;110957;1210;139265;-67
2023/09/17 09:44:35;;;;;;;8.00;4.80;;;;;;;22.90;67.22;100814.58;110965;1206;97680;-68
2023/09/17 09:47:05;;;;;;;6.70;4.30;;;;;;;22.94;67.17;100811.09;110958;1206;139446;-67
2023/09/17 09:49:40;;;;;;;7.00;4.60;;;;;;;23.00;66.96;100808.53;111104;1206;102276;-68
2023/09/17 09:52:06;;;;;;;6.30;4.30;;;;;;;23.05;66.68;100807.88;110985;1206;138904;-67
2023/09/17 09:54:32;;;;;;;6.60;4.60;;;;;;;23.12;66.55;100808.58;111014;1206;97780;-67
2023/09/17 09:56:58;;;;;;;5.00;4.00;;;;;;;23.17;66.34;100804.58;111004;1209;98279;-68
2023/09/17 09:59:24;;;;;;;5.20;4.00;;;;;;;23.25;66.33;100802.19;110826;1209;138957;-68
2023/09/17 10:01:50;;;;;;;4.80;4.20;;;;;;;23.34;66.06;100802.48;110762;1209;97703;-68
2023/09/17 10:04:18;;;;;;;5.90;4.20;;;;;;;23.40;66.03;100795.25;110721;1209;139120;-68
2023/09/17 10:06:45;;;;;;;4.90;4.10;;;;;;;23.47;65.81;100798.42;110970;1209;98015;-68
2023/09/17 10:09:11;;;;;;;6.40;3.80;;;;;;;23.56;65.71;100798.16;110903;1209;104227;-68
2023/09/17 10:11:37;;;;;;;8.70;4.20;;;;;;;23.66;65.47;100793.77;110744;1206;139783;-69
2023/09/17 10:14:06;;;;;;;4.70;4.00;;;;;;;23.75;65.37;100790.71;110969;1209;97606;-69
2023/09/17 10:16:36;;;;;;;9.10;4.50;;;;;;;23.83;65.21;100787.85;110846;1209;137997;-75
2023/09/17 10:19:06;;;;;;;11.40;4.70;;;;;;;23.90;65.20;100791.17;110968;1210;103024;-70
2023/09/17 10:21:33;;;;;;;5.50;3.90;;;;;;;23.97;64.88;100791.77;111066;1206;97572;-70
2023/09/17 10:24:00;;;;;;;4.90;3.50;;;;;;;24.04;64.59;100790.17;110932;1206;138868;-70
2023/09/17 10:26:32;;;;;;;7.70;4.50;;;;;;;24.13;64.31;100795.73;110872;1206;98443;-66
2023/09/17 10:29:00;;;;;;;7.40;4.30;;;;;;;24.22;63.96;100792.65;110877;1206;138987;-69
2023/09/17 10:31:26;;;;;;;5.40;3.90;;;;;;;24.31;63.63;100792.66;111030;1209;103065;-65
2023/09/17 10:33:52;;;;;;;6.20;4.40;;;;;;;24.40;63.27;100791.06;110957;1209;97728;-66
2023/09/17 10:36:22;;;;;;;8.90;4.50;;;;;;;24.51;63.15;100789.96;110681;1209;138014;-68
2023/09/17 10:38:50;;;;;;;9.90;3.90;;;;;;;24.62;62.93;100788.89;111159;1209;97781;-69
2023/09/17 10:41:17;;;;;;;5.10;3.70;;;;;;;24.71;62.78;100793.25;110786;1206;137666;-65
2023/09/17 10:43:46;;;;;;;94.00;8.10;;;;;;;24.75;62.61;100789.53;110979;1210;97566;-61
2023/09/17 10:46:13;;;;;;;6.90;3.80;;;;;;;24.82;62.30;100788.13;110870;1209;138680;-61
2023/09/17 10:48:39;;;;;;;7.00;3.90;;;;;;;24.90;62.27;100790.07;110967;1206;97614;-60
2023/09/17 10:51:04;;;;;;;9.90;3.70;;;;;;;25.03;62.11;100788.93;111011;1207;97748;-68
2023/09/17 10:53:30;;;;;;;5.20;3.20;;;;;;;25.14;61.74;100785.84;110887;1206;139347;-69
2023/09/17 10:56:10;;;;;;;3.70;3.40;;;;;;;25.23;61.53;100781.04;110916;1206;97610;-63
2023/09/17 10:58:50;;;;;;;9.80;3.30;;;;;;;25.34;61.26;100779.55;110757;1206;137989;-62